Time;durP1;ratioP1;P1;durP2;ratioP2;P2;SDS_P1;SDS_P2;PMS_P1;PMS_P2;Temp;Humidity;BMP_temperature;BMP_pressure;BME280_temperature;BME280_humidity;BME280_pressure;Samples;Min_cycle;Max_cycle;Signal;HPM_P1;HPM_P2
2023/06/18 00:00:40;;;;;;;21.88;13.77;;;;;;;;;;4864301;28;20029;-69
2023/06/18 00:03:05;;;;;;;19.45;13.18;;;;;;;;;;4862750;28;20043;-68
2023/06/18 00:05:31;;;;;;;19.63;14.25;;;;;;;;;;4864556;28;20096;-68
2023/06/18 00:07:56;;;;;;;22.42;14.43;;;;;;;;;;4861883;28;20032;-68
2023/06/18 00:10:22;;;;;;;24.73;14.20;;;;;;;;;;4879715;28;20372;-69
2023/06/18 00:12:52;;;;;;;22.30;14.63;;;;;;;;;;4864020;28;20043;-68
2023/06/18 00:15:17;;;;;;;24.13;13.98;;;;;;;;;;4864118;28;20131;-68
2023/06/18 00:17:43;;;;;;;24.80;13.57;;;;;;;;;;4864259;28;20068;-69
2023/06/18 00:20:09;;;;;;;18.80;12.52;;;;;;;;;;4923751;28;20037;-69
2023/06/18 00:22:38;;;;;;;21.67;14.02;;;;;;;;;;4862575;28;20052;-69
2023/06/18 00:25:05;;;;;;;25.17;14.80;;;;;;;;;;4863005;28;20032;-69
2023/06/18 00:27:30;;;;;;;25.90;14.55;;;;;;;;;;4863390;28;20151;-68
2023/06/18 00:29:57;;;;;;;21.15;14.60;;;;;;;;;;4862594;28;20094;-68
2023/06/18 00:32:22;;;;;;;26.02;16.75;;;;;;;;;;4863571;28;22404;-68
2023/06/18 00:34:47;;;;;;;23.10;13.95;;;;;;;;;;4863175;28;20044;-69
2023/06/18 00:37:13;;;;;;;24.50;13.70;;;;;;;;;;4863378;28;20048;-69
2023/06/18 00:39:38;;;;;;;17.88;13.02;;;;;;;;;;4861490;28;20037;-69
2023/06/18 00:42:05;;;;;;;20.70;13.18;;;;;;;;;;4863444;28;20044;-68
2023/06/18 00:44:31;;;;;;;19.67;12.90;;;;;;;;;;4863270;28;20087;-68
2023/06/18 00:46:59;;;;;;;20.58;13.07;;;;;;;;;;4863286;28;20056;-70
2023/06/18 00:49:26;;;;;;;18.52;12.45;;;;;;;;;;4862262;28;20081;-69
2023/06/18 00:51:52;;;;;;;21.75;13.23;;;;;;;;;;4878165;28;20083;-69
2023/06/18 00:54:21;;;;;;;21.35;13.00;;;;;;;;;;4863147;28;20494;-69
2023/06/18 00:56:52;;;;;;;17.92;11.95;;;;;;;;;;4846074;28;20060;-69
2023/06/18 00:59:22;;;;;;;20.83;13.27;;;;;;;;;;4863618;28;20156;-68
2023/06/18 01:01:54;;;;;;;20.98;12.88;;;;;;;;;;4862065;28;20872;-68
2023/06/18 01:04:25;;;;;;;22.75;13.48;;;;;;;;;;4862846;28;20064;-70
2023/06/18 01:06:53;;;;;;;21.48;13.52;;;;;;;;;;4863411;28;20181;-67
2023/06/18 01:09:23;;;;;;;20.10;12.90;;;;;;;;;;4876901;28;20102;-67
2023/06/18 01:11:51;;;;;;;19.13;13.25;;;;;;;;;;4875531;28;20052;-68
2023/06/18 01:14:19;;;;;;;20.52;13.35;;;;;;;;;;4862343;28;20044;-69
2023/06/18 01:16:47;;;;;;;17.90;13.10;;;;;;;;;;4862626;28;20051;-68
2023/06/18 01:19:21;;;;;;;20.40;13.15;;;;;;;;;;4862896;28;20053;-68
2023/06/18 01:21:51;;;;;;;18.67;12.98;;;;;;;;;;4848175;28;20049;-69
2023/06/18 01:24:19;;;;;;;18.90;12.82;;;;;;;;;;4861607;28;20183;-69
2023/06/18 01:26:45;;;;;;;20.80;13.13;;;;;;;;;;4861591;28;20041;-69
2023/06/18 01:29:12;;;;;;;20.35;13.73;;;;;;;;;;4861442;28;20040;-68
2023/06/18 01:31:37;;;;;;;19.75;12.82;;;;;;;;;;4860468;28;20042;-68
2023/06/18 01:34:06;;;;;;;21.73;13.98;;;;;;;;;;4861929;28;20037;-67
2023/06/18 01:36:56;;;;;;;19.88;13.75;;;;;;;;;;4862924;28;20059;-67
2023/06/18 01:39:23;;;;;;;19.52;13.43;;;;;;;;;;4863352;28;20064;-68
2023/06/18 01:41:48;;;;;;;20.17;13.50;;;;;;;;;;4876794;28;20502;-69
2023/06/18 01:44:18;;;;;;;21.20;13.65;;;;;;;;;;4861455;28;20044;-69
2023/06/18 01:46:44;;;;;;;20.27;14.00;;;;;;;;;;4861171;28;20159;-68
2023/06/18 01:49:10;;;;;;;23.75;13.93;;;;;;;;;;4862868;28;20040;-67
2023/06/18 01:51:38;;;;;;;19.15;13.63;;;;;;;;;;4864014;28;20545;-67
2023/06/18 01:54:05;;;;;;;20.40;13.85;;;;;;;;;;4880426;28;20086;-67
2023/06/18 01:56:31;;;;;;;20.17;14.48;;;;;;;;;;4865008;28;20938;-68
2023/06/18 01:58:56;;;;;;;23.48;14.80;;;;;;;;;;4865403;28;20044;-68
2023/06/18 02:01:26;;;;;;;20.17;14.40;;;;;;;;;;4864086;28;20044;-69
2023/06/18 02:03:51;;;;;;;20.27;14.40;;;;;;;;;;4863797;28;20036;-68
2023/06/18 02:06:17;;;;;;;24.05;14.27;;;;;;;;;;4864375;28;20056;-68
2023/06/18 02:08:42;;;;;;;22.10;13.88;;;;;;;;;;4864771;28;20041;-68
2023/06/18 02:11:07;;;;;;;21.55;14.43;;;;;;;;;;4863972;28;20044;-68
2023/06/18 02:13:33;;;;;;;20.83;14.77;;;;;;;;;;4864549;28;20064;-68
2023/06/18 02:15:58;;;;;;;22.50;15.13;;;;;;;;;;4880621;28;20051;-68
2023/06/18 02:18:23;;;;;;;18.95;14.38;;;;;;;;;;4864603;28;20040;-68
2023/06/18 02:20:48;;;;;;;18.15;14.20;;;;;;;;;;4864912;28;20032;-69
2023/06/18 02:23:14;;;;;;;17.88;14.32;;;;;;;;;;4866022;28;20129;-69
2023/06/18 02:25:40;;;;;;;20.92;14.35;;;;;;;;;;4862832;28;20044;-69
2023/06/18 02:28:08;;;;;;;21.20;13.98;;;;;;;;;;4865740;28;20140;-69
2023/06/18 02:30:34;;;;;;;21.52;14.40;;;;;;;;;;4879686;28;20092;-68
2023/06/18 02:33:00;;;;;;;23.05;14.65;;;;;;;;;;4864719;28;20033;-68
2023/06/18 02:35:26;;;;;;;22.63;14.07;;;;;;;;;;4863825;28;20033;-68
2023/06/18 02:37:52;;;;;;;21.60;13.27;;;;;;;;;;4864464;28;21838;-68
2023/06/18 02:40:17;;;;;;;18.85;14.00;;;;;;;;;;4862900;28;20137;-68
2023/06/18 02:42:49;;;;;;;21.23;14.20;;;;;;;;;;4863576;28;20041;-69
2023/06/18 02:45:18;;;;;;;24.20;13.95;;;;;;;;;;4864296;28;20040;-67
2023/06/18 02:47:44;;;;;;;20.13;12.90;;;;;;;;;;4864356;28;20155;-68
2023/06/18 02:50:12;;;;;;;22.65;14.02;;;;;;;;;;4865320;28;20487;-68
2023/06/18 02:52:42;;;;;;;20.08;13.77;;;;;;;;;;4865269;28;20036;-69
2023/06/18 02:55:09;;;;;;;20.95;13.07;;;;;;;;;;4863715;28;20125;-69
2023/06/18 02:57:34;;;;;;;20.58;12.63;;;;;;;;;;4864606;28;20072;-67
2023/06/18 03:00:00;;;;;;;18.75;13.48;;;;;;;;;;4876928;28;20051;-67
2023/06/18 03:02:26;;;;;;;17.08;12.52;;;;;;;;;;4864261;28;20632;-67
2023/06/18 03:04:51;;;;;;;20.75;13.27;;;;;;;;;;4878789;28;20037;-68
2023/06/18 03:07:19;;;;;;;19.63;12.82;;;;;;;;;;4864247;28;20075;-68
2023/06/18 03:09:44;;;;;;;19.60;12.48;;;;;;;;;;4863200;28;20036;-68
2023/06/18 03:12:12;;;;;;;18.35;12.93;;;;;;;;;;4863245;28;22143;-68
2023/06/18 03:14:37;;;;;;;17.08;11.73;;;;;;;;;;4864001;28;20048;-68
2023/06/18 03:17:05;;;;;;;16.73;11.75;;;;;;;;;;4863367;28;20969;-68
2023/06/18 03:19:30;;;;;;;20.17;12.93;;;;;;;;;;4864070;28;20048;-69
2023/06/18 03:21:55;;;;;;;19.77;11.82;;;;;;;;;;4865494;28;20501;-69
2023/06/18 03:24:21;;;;;;;17.88;11.88;;;;;;;;;;4863474;28;20073;-68
2023/06/18 03:26:46;;;;;;;16.23;12.50;;;;;;;;;;4879259;28;20653;-68
2023/06/18 03:29:13;;;;;;;18.55;11.95;;;;;;;;;;4863315;28;20042;-68
2023/06/18 03:31:39;;;;;;;15.80;11.25;;;;;;;;;;4863944;28;20041;-67
2023/06/18 03:34:08;;;;;;;16.00;11.43;;;;;;;;;;4863295;28;20064;-68
2023/06/18 03:36:39;;;;;;;16.13;11.70;;;;;;;;;;4878023;28;20060;-68
2023/06/18 03:39:05;;;;;;;15.98;10.98;;;;;;;;;;4863265;28;20048;-68
2023/06/18 03:41:30;;;;;;;16.05;11.05;;;;;;;;;;4864800;28;20044;-67
2023/06/18 03:43:56;;;;;;;18.50;10.75;;;;;;;;;;4847465;28;20041;-68
2023/06/18 03:46:21;;;;;;;16.70;11.25;;;;;;;;;;4863499;28;20077;-69
2023/06/18 03:48:46;;;;;;;16.73;10.65;;;;;;;;;;4877965;28;20040;-68
2023/06/18 03:51:12;;;;;;;16.05;10.55;;;;;;;;;;4862691;28;20556;-69
2023/06/18 03:53:37;;;;;;;17.35;10.90;;;;;;;;;;4862515;28;20131;-68
2023/06/18 03:56:06;;;;;;;14.90;10.25;;;;;;;;;;4878444;28;22171;-70
2023/06/18 03:58:32;;;;;;;12.45;10.45;;;;;;;;;;4876919;28;20116;-69
2023/06/18 04:00:57;;;;;;;16.65;10.23;;;;;;;;;;4860912;28;20061;-68
2023/06/18 04:03:23;;;;;;;14.93;10.57;;;;;;;;;;4863433;28;20102;-68
2023/06/18 04:05:48;;;;;;;16.98;10.32;;;;;;;;;;4862619;28;20040;-68
2023/06/18 04:08:14;;;;;;;12.70;9.52;;;;;;;;;;4862304;28;20116;-70
2023/06/18 04:10:43;;;;;;;15.50;10.63;;;;;;;;;;4860583;28;21093;-69
2023/06/18 04:13:09;;;;;;;14.40;9.98;;;;;;;;;;4861492;28;20040;-68
2023/06/18 04:15:34;;;;;;;16.50;9.68;;;;;;;;;;4862047;28;20214;-68
2023/06/18 04:17:59;;;;;;;16.27;9.77;;;;;;;;;;4861996;28;20053;-68
2023/06/18 04:20:24;;;;;;;11.68;8.93;;;;;;;;;;4863044;28;20040;-68
2023/06/18 04:22:50;;;;;;;15.40;9.38;;;;;;;;;;4877457;28;20129;-68
2023/06/18 04:25:15;;;;;;;12.43;9.18;;;;;;;;;;4861541;28;20036;-68
2023/06/18 04:27:41;;;;;;;14.65;9.63;;;;;;;;;;4863501;28;20044;-69
2023/06/18 04:30:07;;;;;;;14.63;9.50;;;;;;;;;;4862697;28;20037;-68
2023/06/18 04:32:32;;;;;;;12.57;9.00;;;;;;;;;;4861666;28;20045;-68
2023/06/18 04:34:57;;;;;;;13.98;9.10;;;;;;;;;;4862701;28;20071;-67
2023/06/18 04:37:23;;;;;;;12.75;8.70;;;;;;;;;;4862118;28;20068;-68
2023/06/18 04:39:48;;;;;;;14.77;8.77;;;;;;;;;;4862918;28;20044;-68
2023/06/18 04:42:14;;;;;;;14.82;8.50;;;;;;;;;;4860079;28;20040;-69
2023/06/18 04:44:39;;;;;;;13.05;8.90;;;;;;;;;;4878004;28;20048;-68
2023/06/18 04:47:04;;;;;;;13.20;8.98;;;;;;;;;;4862756;28;20076;-68
2023/06/18 04:49:32;;;;;;;12.95;9.80;;;;;;;;;;4863000;28;20119;-68
2023/06/18 04:52:00;;;;;;;12.45;8.95;;;;;;;;;;4861340;28;20124;-69
2023/06/18 04:54:26;;;;;;;12.18;8.82;;;;;;;;;;4863044;28;20044;-68
2023/06/18 04:56:51;;;;;;;18.75;9.75;;;;;;;;;;4878024;28;20051;-66
2023/06/18 04:59:16;;;;;;;12.93;8.70;;;;;;;;;;4863747;28;20084;-68
2023/06/18 05:01:42;;;;;;;12.82;8.77;;;;;;;;;;4864304;28;20040;-68
2023/06/18 05:04:10;;;;;;;14.68;8.70;;;;;;;;;;4864472;28;22186;-68
2023/06/18 05:06:35;;;;;;;11.45;8.38;;;;;;;;;;4924736;28;20045;-70
2023/06/18 05:09:00;;;;;;;11.98;8.20;;;;;;;;;;4863054;28;20568;-69
2023/06/18 05:11:26;;;;;;;11.05;8.40;;;;;;;;;;4862797;28;20563;-67
2023/06/18 05:13:53;;;;;;;12.15;8.80;;;;;;;;;;4860286;28;20082;-68
2023/06/18 05:16:19;;;;;;;10.95;7.57;;;;;;;;;;4875408;28;20102;-69
2023/06/18 05:18:46;;;;;;;9.93;7.53;;;;;;;;;;4862493;28;20048;-69
2023/06/18 05:21:11;;;;;;;11.13;8.10;;;;;;;;;;4862742;28;20549;-68
2023/06/18 05:23:37;;;;;;;11.80;8.30;;;;;;;;;;4863403;28;20043;-69
2023/06/18 05:26:02;;;;;;;9.55;7.40;;;;;;;;;;4864631;28;20146;-68
2023/06/18 05:28:27;;;;;;;9.93;7.80;;;;;;;;;;4866170;28;20049;-68
2023/06/18 05:30:53;;;;;;;13.02;7.75;;;;;;;;;;4866636;28;20033;-67
2023/06/18 05:33:18;;;;;;;10.82;7.55;;;;;;;;;;4865583;28;20037;-68
2023/06/18 05:35:45;;;;;;;10.25;7.70;;;;;;;;;;4882199;28;20101;-69
2023/06/18 05:38:11;;;;;;;11.05;7.95;;;;;;;;;;4865048;28;20048;-69
2023/06/18 05:40:36;;;;;;;10.13;7.32;;;;;;;;;;4865895;28;20041;-68
2023/06/18 05:43:01;;;;;;;9.30;7.55;;;;;;;;;;4865544;28;20044;-70
2023/06/18 05:45:26;;;;;;;9.80;7.45;;;;;;;;;;4865114;28;20040;-70
2023/06/18 05:47:52;;;;;;;11.02;7.55;;;;;;;;;;4878996;28;20393;-69
2023/06/18 05:50:17;;;;;;;12.15;8.05;;;;;;;;;;4866210;28;20160;-68
2023/06/18 05:52:42;;;;;;;10.45;7.40;;;;;;;;;;4864574;28;20036;-68
2023/06/18 05:55:08;;;;;;;11.20;7.75;;;;;;;;;;4862627;28;20508;-69
2023/06/18 05:57:33;;;;;;;9.23;7.28;;;;;;;;;;4863494;28;20048;-68
2023/06/18 05:59:58;;;;;;;11.70;7.47;;;;;;;;;;4863281;28;20152;-69
2023/06/18 06:02:28;;;;;;;10.55;7.43;;;;;;;;;;4860495;28;20060;-69
2023/06/18 06:04:57;;;;;;;11.45;7.53;;;;;;;;;;4879510;28;20044;-68
2023/06/18 06:07:22;;;;;;;12.68;7.07;;;;;;;;;;4861673;28;20052;-69
2023/06/18 06:09:47;;;;;;;14.50;7.82;;;;;;;;;;4868145;28;20056;-69
2023/06/18 06:12:15;;;;;;;9.07;6.60;;;;;;;;;;4862590;28;20126;-69
2023/06/18 06:14:40;;;;;;;12.13;6.63;;;;;;;;;;4864624;28;20647;-69
2023/06/18 06:17:05;;;;;;;9.43;6.82;;;;;;;;;;4864088;28;20048;-69
2023/06/18 06:19:33;;;;;;;10.13;6.97;;;;;;;;;;4864735;28;20056;-69
2023/06/18 06:21:59;;;;;;;9.90;6.30;;;;;;;;;;4926383;28;20048;-69
2023/06/18 06:24:24;;;;;;;8.60;6.68;;;;;;;;;;4862267;28;20032;-69
2023/06/18 06:26:50;;;;;;;11.43;7.38;;;;;;;;;;4865884;28;20977;-68
2023/06/18 06:29:15;;;;;;;11.15;7.65;;;;;;;;;;4865074;28;20493;-68
2023/06/18 06:31:45;;;;;;;11.20;7.28;;;;;;;;;;4865702;28;20071;-67
2023/06/18 06:34:11;;;;;;;12.50;8.47;;;;;;;;;;4865570;28;20095;-68
2023/06/18 06:36:38;;;;;;;9.73;7.00;;;;;;;;;;4846445;28;20064;-69
2023/06/18 06:39:03;;;;;;;11.38;6.97;;;;;;;;;;4865183;28;20045;-69
2023/06/18 06:41:28;;;;;;;10.02;7.03;;;;;;;;;;4865240;28;20048;-69
2023/06/18 06:43:54;;;;;;;10.85;6.50;;;;;;;;;;4864846;28;20048;-68
2023/06/18 06:46:19;;;;;;;8.35;6.43;;;;;;;;;;4866168;28;20064;-69
2023/06/18 06:48:45;;;;;;;9.95;6.40;;;;;;;;;;4865366;28;20818;-69
2023/06/18 06:51:10;;;;;;;10.70;6.57;;;;;;;;;;4865216;28;20040;-70
2023/06/18 06:53:35;;;;;;;10.23;7.00;;;;;;;;;;4878812;28;20052;-69
2023/06/18 06:56:00;;;;;;;11.07;7.43;;;;;;;;;;4865499;28;20765;-70
2023/06/18 06:58:28;;;;;;;9.85;7.15;;;;;;;;;;4863776;28;20049;-71
2023/06/18 07:00:53;;;;;;;12.18;6.55;;;;;;;;;;4862997;28;20049;-70
2023/06/18 07:03:18;;;;;;;13.43;7.25;;;;;;;;;;4861621;28;20076;-71
2023/06/18 07:05:44;;;;;;;10.88;7.28;;;;;;;;;;4861528;28;20041;-69
2023/06/18 07:08:09;;;;;;;9.55;6.45;;;;;;;;;;4863067;28;20088;-69
2023/06/18 07:10:34;;;;;;;14.77;7.05;;;;;;;;;;4863770;28;22294;-71
2023/06/18 07:13:02;;;;;;;10.73;6.25;;;;;;;;;;4864054;28;22188;-71
2023/06/18 07:15:30;;;;;;;8.90;5.97;;;;;;;;;;4864683;28;20133;-71
2023/06/18 07:17:56;;;;;;;8.90;6.50;;;;;;;;;;4864810;29;20048;-69
2023/06/18 07:20:21;;;;;;;12.00;6.35;;;;;;;;;;4864386;28;20076;-70
2023/06/18 07:22:46;;;;;;;9.82;6.20;;;;;;;;;;4864669;28;20050;-71
2023/06/18 07:25:11;;;;;;;12.35;7.15;;;;;;;;;;4860691;28;20139;-71
2023/06/18 07:27:37;;;;;;;13.38;7.07;;;;;;;;;;4859257;28;20041;-70
2023/06/18 07:30:02;;;;;;;11.82;7.28;;;;;;;;;;4878651;28;20581;-68
2023/06/18 07:32:28;;;;;;;13.85;7.32;;;;;;;;;;4860832;28;20904;-68
2023/06/18 07:34:53;;;;;;;10.88;7.03;;;;;;;;;;4864217;28;20036;-69
2023/06/18 07:37:18;;;;;;;10.63;7.28;;;;;;;;;;4860684;28;20047;-70
2023/06/18 07:39:43;;;;;;;11.45;7.00;;;;;;;;;;4858809;28;20047;-70
2023/06/18 07:42:09;;;;;;;9.95;7.57;;;;;;;;;;4861277;28;20612;-71
2023/06/18 07:44:34;;;;;;;9.60;7.70;;;;;;;;;;4876003;28;20051;-71
2023/06/18 07:47:00;;;;;;;15.40;6.90;;;;;;;;;;4858920;28;20084;-70
2023/06/18 07:49:26;;;;;;;10.48;7.40;;;;;;;;;;4877575;28;20032;-70
2023/06/18 07:51:51;;;;;;;10.90;7.40;;;;;;;;;;4857548;28;20041;-72
2023/06/18 07:54:16;;;;;;;13.90;6.82;;;;;;;;;;4861345;28;20136;-71
2023/06/18 07:56:42;;;;;;;11.95;6.10;;;;;;;;;;4871651;28;20083;-72
2023/06/18 07:59:07;;;;;;;8.15;5.97;;;;;;;;;;4876283;28;20489;-71
2023/06/18 08:01:33;;;;;;;9.68;6.68;;;;;;;;;;4861555;28;20040;-72
2023/06/18 08:03:58;;;;;;;8.38;6.35;;;;;;;;;;4862755;28;20041;-73
2023/06/18 08:06:24;;;;;;;9.75;5.95;;;;;;;;;;4862014;28;20056;-72
2023/06/18 08:08:59;;;;;;;9.55;6.47;;;;;;;;;;5036674;27;1301164;-69
2023/06/18 08:11:27;;;;;;;8.55;6.30;;;;;;;;;;5068297;27;20040;-72
2023/06/18 08:13:54;;;;;;;10.57;6.15;;;;;;;;;;5068561;27;20219;-70
2023/06/18 08:16:21;;;;;;;8.90;6.40;;;;;;;;;;5067877;27;20040;-70
2023/06/18 08:18:52;;;;;;;10.63;6.80;;;;;;;;;;5071322;27;20095;-71
2023/06/18 08:21:17;;;;;;;9.77;6.72;;;;;;;;;;5069866;27;20795;-70
2023/06/18 08:23:44;;;;;;;11.90;6.80;;;;;;;;;;5070934;27;20776;-70
2023/06/18 08:26:10;;;;;;;14.38;7.00;;;;;;;;;;5067017;27;20051;-69
2023/06/18 08:28:35;;;;;;;10.93;7.82;;;;;;;;;;5069676;27;20051;-70
2023/06/18 08:31:03;;;;;;;11.13;6.85;;;;;;;;;;5070229;27;20589;-69
2023/06/18 08:33:31;;;;;;;10.77;6.47;;;;;;;;;;5070454;27;20046;-69
2023/06/18 08:35:56;;;;;;;8.90;6.43;;;;;;;;;;5072094;27;20032;-69
2023/06/18 08:38:21;;;;;;;9.90;7.20;;;;;;;;;;5087515;27;20533;-69
2023/06/18 08:41:01;;;;;;;9.27;6.57;;;;;;;;;;5062143;28;20166;-69
2023/06/18 08:43:32;;;;;;;10.18;7.10;;;;;;;;;;5072954;27;20039;-69
2023/06/18 08:46:04;;;;;;;11.27;7.13;;;;;;;;;;5062404;27;20063;-69
2023/06/18 08:51:08;;;;;;;14.13;7.90;;;;;;;;;;4944824;28;20062;-73
2023/06/18 08:56:09;;;;;;;10.85;7.80;;;;;;;;;;4811228;23;20049;-73
2023/06/18 08:58:39;;;;;;;15.43;9.73;;;;;;;;;;4995630;28;20112;-73
2023/06/18 09:01:05;;;;;;;9.48;7.50;;;;;;;;;;4962203;28;21793;-73
2023/06/18 09:03:32;;;;;;;11.35;9.55;;;;;;;;;;4966777;28;20030;-72
2023/06/18 09:05:58;;;;;;;14.80;9.45;;;;;;;;;;4959778;28;20042;-73
2023/06/18 09:08:24;;;;;;;9.05;7.60;;;;;;;;;;4975961;28;20124;-73
2023/06/18 09:10:49;;;;;;;9.20;7.45;;;;;;;;;;4963466;28;20065;-72
2023/06/18 09:13:17;;;;;;;8.77;6.80;;;;;;;;;;4976231;28;20036;-71
2023/06/18 09:15:42;;;;;;;9.10;7.22;;;;;;;;;;4976996;28;20034;-71
2023/06/18 09:18:08;;;;;;;11.00;7.90;;;;;;;;;;4962928;28;20093;-70
2023/06/18 09:20:34;;;;;;;12.75;8.23;;;;;;;;;;4962833;28;20577;-72
2023/06/18 09:23:05;;;;;;;10.35;8.07;;;;;;;;;;4963938;28;20042;-72
2023/06/18 09:25:32;;;;;;;12.00;8.45;;;;;;;;;;4962280;28;20326;-71
2023/06/18 09:28:00;;;;;;;10.90;8.65;;;;;;;;;;4963998;28;20751;-70
2023/06/18 09:30:25;;;;;;;10.18;8.90;;;;;;;;;;4963757;28;20034;-70
2023/06/18 09:32:52;;;;;;;10.35;8.55;;;;;;;;;;4961738;28;20042;-71
2023/06/18 09:35:20;;;;;;;9.70;8.68;;;;;;;;;;4961149;28;20706;-70
2023/06/18 09:37:47;;;;;;;12.50;9.32;;;;;;;;;;4946784;28;20058;-71
2023/06/18 09:40:18;;;;;;;14.77;9.98;;;;;;;;;;4950261;28;20045;-70
2023/06/18 09:42:44;;;;;;;12.82;9.82;;;;;;;;;;4935674;28;20043;-71
2023/06/18 09:45:12;;;;;;;12.13;9.82;;;;;;;;;;4963216;28;20445;-71
2023/06/18 09:47:40;;;;;;;12.50;10.65;;;;;;;;;;4946503;28;20140;-72
2023/06/18 09:50:09;;;;;;;13.95;9.95;;;;;;;;;;4953307;28;20042;-72
2023/06/18 09:52:52;;;;;;;12.35;9.55;;;;;;;;;;4949620;28;20080;-71
2023/06/18 09:55:27;;;;;;;16.15;11.68;;;;;;;;;;4946642;28;20069;-71
2023/06/18 09:57:53;;;;;;;14.90;12.15;;;;;;;;;;4961049;28;20043;-72
2023/06/18 10:00:21;;;;;;;15.25;11.57;;;;;;;;;;4963317;28;20050;-71
2023/06/18 10:02:49;;;;;;;14.27;11.60;;;;;;;;;;4951810;28;20064;-74
2023/06/18 10:05:14;;;;;;;16.30;11.93;;;;;;;;;;4963515;28;20514;-73
2023/06/18 10:07:42;;;;;;;17.90;12.60;;;;;;;;;;4963118;28;20046;-74
2023/06/18 10:10:13;;;;;;;14.55;11.43;;;;;;;;;;4951796;28;20046;-74
2023/06/18 10:12:41;;;;;;;14.48;12.35;;;;;;;;;;4965004;28;20260;-72
2023/06/18 10:15:14;;;;;;;14.20;11.48;;;;;;;;;;4952058;28;20148;-73
2023/06/18 10:17:47;;;;;;;15.23;11.65;;;;;;;;;;4949057;28;20837;-73
2023/06/18 10:20:13;;;;;;;15.35;12.70;;;;;;;;;;4967067;28;20045;-74
2023/06/18 10:22:46;;;;;;;17.88;13.43;;;;;;;;;;4936451;28;20150;-76
2023/06/18 10:25:11;;;;;;;15.30;13.02;;;;;;;;;;4954931;28;20034;-74
2023/06/18 10:27:37;;;;;;;16.98;14.02;;;;;;;;;;4966066;28;20732;-74
2023/06/18 10:30:02;;;;;;;17.83;13.05;;;;;;;;;;4964889;28;20868;-74
2023/06/18 10:32:28;;;;;;;17.02;12.82;;;;;;;;;;4965538;28;20687;-72
2023/06/18 10:34:56;;;;;;;18.38;14.27;;;;;;;;;;4966472;28;20701;-70
2023/06/18 10:37:22;;;;;;;15.85;13.82;;;;;;;;;;4938984;28;20088;-73
2023/06/18 10:39:47;;;;;;;15.98;14.02;;;;;;;;;;4965521;28;20558;-71
2023/06/18 10:42:16;;;;;;;16.10;13.13;;;;;;;;;;4947549;28;20507;-74
2023/06/18 10:44:49;;;;;;;17.20;14.07;;;;;;;;;;4952158;28;20081;-71
2023/06/18 10:47:14;;;;;;;;;;;;;;;;;;4964334;28;20042;-72
2023/06/18 10:49:40;;;;;;;15.67;13.37;;;;;;;;;;4963842;28;19973;-72
2023/06/18 10:52:12;;;;;;;18.17;14.32;;;;;;;;;;4948875;28;20494;-71
2023/06/18 10:54:38;;;;;;;16.52;14.55;;;;;;;;;;4964746;28;20050;-71
2023/06/18 10:57:03;;;;;;;19.73;15.40;;;;;;;;;;4957825;28;20038;-71
2023/06/18 10:59:32;;;;;;;16.70;13.05;;;;;;;;;;4946767;28;20092;-70
2023/06/18 11:01:58;;;;;;;15.93;13.82;;;;;;;;;;4965574;28;20050;-71
2023/06/18 11:04:23;;;;;;;15.52;13.65;;;;;;;;;;4941586;28;20099;-71
2023/06/18 11:06:49;;;;;;;17.52;15.65;;;;;;;;;;4955890;28;20026;-71
2023/06/18 11:09:17;;;;;;;17.20;14.32;;;;;;;;;;4956094;28;20065;-71
2023/06/18 11:11:50;;;;;;;17.92;16.13;;;;;;;;;;4964145;28;20034;-71
2023/06/18 11:14:19;;;;;;;18.17;16.33;;;;;;;;;;4965188;28;20035;-72
2023/06/18 11:17:05;;;;;;;18.40;16.17;;;;;;;;;;4938454;28;20034;-71
2023/06/18 11:19:30;;;;;;;17.40;13.65;;;;;;;;;;4953421;28;22241;-72
2023/06/18 11:21:58;;;;;;;17.17;13.93;;;;;;;;;;4954715;28;21508;-72
2023/06/18 11:24:26;;;;;;;20.73;14.65;;;;;;;;;;4954448;28;20157;-72
2023/06/18 11:26:52;;;;;;;15.25;13.65;;;;;;;;;;4945310;28;20040;-72
2023/06/18 11:29:17;;;;;;;19.63;13.73;;;;;;;;;;4962062;28;20423;-72
2023/06/18 11:31:46;;;;;;;16.48;14.70;;;;;;;;;;4952465;28;20038;-71
2023/06/18 11:34:12;;;;;;;16.50;14.77;;;;;;;;;;4960309;28;20045;-72
2023/06/18 11:36:38;;;;;;;16.02;13.35;;;;;;;;;;4945948;28;20596;-72
2023/06/18 11:39:04;;;;;;;14.98;13.38;;;;;;;;;;4961326;28;20204;-71
2023/06/18 11:41:29;;;;;;;12.30;11.00;;;;;;;;;;4959769;28;20097;-71
2023/06/18 11:43:56;;;;;;;13.98;11.07;;;;;;;;;;4949166;28;20487;-71
2023/06/18 11:46:33;;;;;;;10.80;9.23;;;;;;;;;;4960101;28;20038;-72
2023/06/18 11:48:59;;;;;;;12.82;9.60;;;;;;;;;;4961732;28;20046;-71
2023/06/18 11:51:27;;;;;;;16.80;15.00;;;;;;;;;;4961197;28;20756;-72
2023/06/18 11:53:53;;;;;;;16.05;14.35;;;;;;;;;;4944270;28;20057;-71
2023/06/18 11:56:25;;;;;;;18.70;15.65;;;;;;;;;;4942970;28;20472;-72
2023/06/18 11:58:51;;;;;;;18.38;14.32;;;;;;;;;;4934083;28;20034;-71
2023/06/18 12:01:17;;;;;;;19.05;13.73;;;;;;;;;;4960849;28;20108;-71
2023/06/18 12:03:42;;;;;;;16.17;12.85;;;;;;;;;;4931265;28;20030;-71
2023/06/18 12:06:11;;;;;;;13.20;11.15;;;;;;;;;;4959531;28;20031;-70
2023/06/18 12:08:41;;;;;;;18.00;15.32;;;;;;;;;;4950557;28;20046;-71
2023/06/18 12:11:12;;;;;;;20.38;18.25;;;;;;;;;;4946145;28;20438;-72
2023/06/18 12:13:41;;;;;;;18.42;16.20;;;;;;;;;;4960399;28;20184;-72
2023/06/18 12:16:11;;;;;;;20.25;15.32;;;;;;;;;;4936341;28;20142;-72
2023/06/18 12:18:38;;;;;;;19.95;16.77;;;;;;;;;;4940818;28;20038;-72
2023/06/18 12:21:04;;;;;;;19.35;16.67;;;;;;;;;;4962116;28;20580;-71
2023/06/18 12:23:30;;;;;;;21.15;18.50;;;;;;;;;;4942228;28;20030;-72
2023/06/18 12:25:58;;;;;;;20.40;18.25;;;;;;;;;;4960799;28;20460;-72
2023/06/18 12:28:23;;;;;;;24.88;19.63;;;;;;;;;;4946291;28;20042;-71
2023/06/18 12:30:51;;;;;;;21.40;18.50;;;;;;;;;;4948918;28;20525;-72
2023/06/18 12:33:18;;;;;;;23.05;18.90;;;;;;;;;;4929937;28;20035;-71
2023/06/18 12:35:50;;;;;;;19.13;17.13;;;;;;;;;;4943666;28;20041;-71
2023/06/18 12:38:21;;;;;;;21.05;17.52;;;;;;;;;;4941364;28;20038;-72
2023/06/18 12:40:51;;;;;;;21.67;18.50;;;;;;;;;;4946858;28;20108;-72
2023/06/18 12:43:17;;;;;;;19.73;17.83;;;;;;;;;;4959420;28;20043;-72
2023/06/18 12:45:44;;;;;;;22.30;17.98;;;;;;;;;;4945960;28;20859;-71
2023/06/18 12:48:11;;;;;;;21.88;17.60;;;;;;;;;;4946265;28;20884;-72
2023/06/18 12:50:44;;;;;;;20.95;18.85;;;;;;;;;;4961248;28;20386;-72
2023/06/18 12:53:24;;;;;;;20.77;16.80;;;;;;;;;;4950680;28;20043;-71
2023/06/18 12:55:57;;;;;;;21.63;17.55;;;;;;;;;;4944948;28;21896;-73
2023/06/18 12:58:24;;;;;;;23.95;19.83;;;;;;;;;;4943148;28;20339;-72
2023/06/18 13:00:59;;;;;;;23.67;21.15;;;;;;;;;;4950694;28;21837;-72
2023/06/18 13:03:25;;;;;;;21.67;19.38;;;;;;;;;;4948627;28;20038;-71
2023/06/18 13:05:51;;;;;;;22.35;20.02;;;;;;;;;;4963995;28;20053;-72
2023/06/18 13:08:17;;;;;;;25.67;19.45;;;;;;;;;;4963514;28;20057;-71
2023/06/18 13:10:49;;;;;;;23.05;18.42;;;;;;;;;;4963210;28;20433;-72
2023/06/18 13:13:18;;;;;;;24.30;17.25;;;;;;;;;;4963758;28;20049;-71
2023/06/18 13:15:44;;;;;;;13.20;11.35;;;;;;;;;;4950634;28;20038;-73
2023/06/18 13:18:12;;;;;;;13.32;11.45;;;;;;;;;;4961524;28;20035;-70
2023/06/18 13:20:40;;;;;;;8.33;6.43;;;;;;;;;;4937630;28;20042;-73
2023/06/18 13:23:05;;;;;;;9.27;5.47;;;;;;;;;;4960242;28;20100;-71
2023/06/18 13:25:31;;;;;;;8.27;5.88;;;;;;;;;;4948921;28;20441;-72
2023/06/18 13:27:59;;;;;;;7.65;5.30;;;;;;;;;;4938605;28;20049;-71
2023/06/18 13:30:24;;;;;;;12.32;5.68;;;;;;;;;;4943932;28;20701;-71
2023/06/18 13:32:51;;;;;;;7.35;5.50;;;;;;;;;;4961442;28;20070;-73
2023/06/18 13:35:17;;;;;;;8.77;5.35;;;;;;;;;;4944926;28;20053;-72
2023/06/18 13:37:43;;;;;;;8.88;5.28;;;;;;;;;;4961445;28;20414;-72
2023/06/18 13:40:08;;;;;;;8.93;5.15;;;;;;;;;;4961114;28;20121;-70
2023/06/18 13:42:38;;;;;;;7.95;5.82;;;;;;;;;;4963598;28;20035;-69
2023/06/18 13:45:04;;;;;;;11.00;6.20;;;;;;;;;;4958983;28;20038;-70
2023/06/18 13:47:29;;;;;;;8.10;6.07;;;;;;;;;;4947392;28;20281;-71
2023/06/18 13:49:55;;;;;;;9.75;5.68;;;;;;;;;;4963412;28;20042;-71
2023/06/18 13:52:21;;;;;;;8.35;5.78;;;;;;;;;;4949279;28;20039;-72
2023/06/18 13:54:46;;;;;;;8.45;5.93;;;;;;;;;;4966036;28;20475;-71
2023/06/18 13:57:12;;;;;;;12.48;6.65;;;;;;;;;;4965902;28;20104;-71
2023/06/18 13:59:37;;;;;;;12.18;6.20;;;;;;;;;;4933905;28;20034;-71
2023/06/18 14:02:03;;;;;;;10.07;6.55;;;;;;;;;;4963898;28;20041;-72
2023/06/18 14:04:28;;;;;;;9.32;6.78;;;;;;;;;;4949365;28;20704;-71
2023/06/18 14:06:54;;;;;;;10.02;7.40;;;;;;;;;;4959883;28;20038;-72
2023/06/18 14:09:19;;;;;;;8.00;6.47;;;;;;;;;;4960523;28;20508;-72
2023/06/18 14:11:44;;;;;;;10.13;7.13;;;;;;;;;;4962161;28;20038;-73
2023/06/18 14:14:15;;;;;;;12.90;7.20;;;;;;;;;;4964093;28;20140;-71
2023/06/18 14:16:42;;;;;;;12.85;7.43;;;;;;;;;;4960357;28;20028;-71
2023/06/18 14:19:08;;;;;;;12.05;7.38;;;;;;;;;;4961343;28;20038;-74
2023/06/18 14:21:35;;;;;;;11.77;7.53;;;;;;;;;;4963538;28;20061;-72
2023/06/18 14:24:04;;;;;;;13.02;7.32;;;;;;;;;;4963509;28;20137;-74
2023/06/18 14:26:30;;;;;;;11.10;7.05;;;;;;;;;;4961807;28;20098;-76
2023/06/18 14:28:55;;;;;;;9.70;7.70;;;;;;;;;;4964951;28;20042;-75